Share

Beloit, KS

Center Township (KKSBELOI1) Elev 1504 ft | 39.33 °N, 98.15 °W | Change Station

Current weather conditions updated 33 seconds ago

Clear
Clear
59.4 °F
Feels Like 59.4 °F
N
2.0
Wind Variable Wind from SE
Gusts 7.0 mph
Sunrise 6:48 AM
Sunset 8:15 PM
Moon Waning Gibbous

Today is forecast to be nearly the same temperature as yesterday. Rain with a few rumbles of thunder tonight.

Pressure 29.98 in
Visibility 10.0 miles
Clouds Clear
Dew Point 53 °F
Humidity 79%
Rainfall 0.00 in
Snow Depth Not available.
UV 0 out of 16
Pollen 8.00 out of 12
Air Quality Not available.
Flu Activity No Activity
METAR KHJH 201235Z AUTO 20010G15KT 10SM CLR 16/10 A2998 RMK AO2 T01550099

More Conditions Fewer Conditions

Pressure 29.98 in
Visibility 10.0 miles
Clouds Clear
Dew Point 53 °F
Humidity 79%
Rainfall 0.00 in
Snow Depth Not available.
UV 0 out of 16
Pollen 8.00 out of 12
Air Quality Not available.
Flu Activity No Activity
METAR KHJH 201235Z AUTO 20010G15KT 10SM CLR 16/10 A2998 RMK AO2 T01550099

More Conditions Fewer Conditions

10-Day Weather Forecast

Almanac

Astronomy

Apr. 20, 2014 Rise Set
Actual Time 6:48 AM CDT 8:15 PM CDT
Civil Twilight 6:19 AM CDT 8:43 PM CDT
Nautical Twilight 5:46 AM CDT 9:17 PM CDT
Astronomical Twilight 5:10 AM CDT 9:53 PM CDT
Moon 12:55 AM CDT 11:10 AM CDT
Length of Visible Light 14h 23m
Length of Day
13h 27m
Tomorrow will be 2m 24s longer.
Waning Gibbous, 70% of the Moon is Illuminated
Today
Waning Gibbous
Apr 22
Last Quarter
Apr 29
New
May 6
First Quarter
May 14
Full

Today's Extremes

State Highs State Lows

Community

  • EARLY FOGGY MORNING
    EARLY FOGGY MORNING
  • Easter Greetings
    Easter Greetings
  • Sunny day at the coast-Cape Arago Lighthouse
    Sunny day at the coast-Cape Arago Lighthouse
  • Cherry Blossoms
    Cherry Blossoms
  • White-Crowned Sparrow
    White-Crowned Sparrow

WunderPhotos

Upload Photos

1,703,189 photos uploaded!

Nearby

Snow Depth

Station Depth Elevation
No new snow has been reported.

Coastal Water Temperatures

Place Temperature
No Stations Reporting

Earthquake Activity

City Distance Mag. Time & Date
No recent earthquake activity has been reported nearby.
Minimum magnitude displayed is 2.5.

Nearby Weather Stations

Station Location Temp. Dew Point Humidity Wind Precip. Elev Updated Type
Center Township, BELOIT, KS 59.4 °F 53 °F 79% SE  at  2.0 mph 0.00 in / hr 1504 ft 7:58 AM CDT Normal
Simpson KS, Beloit, KS 61.0 °F 58 °F 91% South  at  3.2 mph - / hr 1342 ft 7:50 AM CDT Normal

Show More Stations Show Fewer Stations

What do you think?

We're not finished. Please let us know what you like, what you don't like, and what you are still missing.